Time;durP1;ratioP1;P1;durP2;ratioP2;P2;SDS_P1;SDS_P2;PMS_P1;PMS_P2;Temp;Humidity;BMP_temperature;BMP_pressure;BME280_temperature;BME280_humidity;BME280_pressure;Samples;Min_cycle;Max_cycle;Signal;HPM_P1;HPM_P2
2023/02/28 00:01:44;;;;;;;14.90;13.17;;;3.70;99.90;;;;;;4917604;29;20865;-72
2023/02/28 00:04:12;;;;;;;15.80;14.30;;;3.70;99.90;;;;;;4917614;29;20451;-72
2023/02/28 00:06:41;;;;;;;15.83;12.67;;;3.70;99.90;;;;;;4916012;29;20456;-72
2023/02/28 00:09:09;;;;;;;16.17;12.10;;;3.70;99.90;;;;;;4917496;29;20514;-72
2023/02/28 00:11:37;;;;;;;16.27;14.00;;;3.70;99.90;;;;;;4917621;29;20591;-72
2023/02/28 00:14:05;;;;;;;20.43;13.50;;;3.70;99.90;;;;;;4917215;29;20492;-72
2023/02/28 00:16:35;;;;;;;15.60;14.03;;;3.70;99.90;;;;;;4917029;29;20476;-72
2023/02/28 00:19:03;;;;;;;15.17;13.57;;;3.70;99.90;;;;;;4917485;29;20829;-72
2023/02/28 00:21:31;;;;;;;16.73;15.07;;;3.70;99.90;;;;;;4915835;29;20841;-72
2023/02/28 00:23:59;;;;;;;16.83;15.13;;;3.60;99.90;;;;;;4917106;29;20528;-72
2023/02/28 00:26:27;;;;;;;15.87;13.90;;;3.60;99.90;;;;;;4915928;29;20463;-72
2023/02/28 00:28:55;;;;;;;16.03;14.00;;;3.60;99.90;;;;;;4915911;29;20662;-72
2023/02/28 00:31:24;;;;;;;16.40;14.77;;;3.70;99.90;;;;;;4917009;29;20460;-72
2023/02/28 00:33:53;;;;;;;15.40;14.00;;;3.70;99.90;;;;;;4915769;29;20451;-72
2023/02/28 00:36:21;;;;;;;14.47;13.07;;;3.60;99.90;;;;;;4915764;29;20823;-72
2023/02/28 00:38:49;;;;;;;14.13;12.83;;;3.60;99.90;;;;;;4917209;29;20567;-72
2023/02/28 00:41:17;;;;;;;13.93;12.23;;;3.70;99.90;;;;;;4915649;29;20448;-72
2023/02/28 00:43:48;;;;;;;14.17;12.67;;;3.60;99.90;;;;;;4915770;29;20447;-72
2023/02/28 00:46:16;;;;;;;15.67;12.50;;;3.60;99.90;;;;;;4917491;29;20437;-72
2023/02/28 00:48:44;;;;;;;14.93;13.50;;;3.60;99.90;;;;;;4915699;29;20468;-72
2023/02/28 00:51:14;;;;;;;13.73;12.27;;;3.60;99.90;;;;;;4915611;29;20459;-72
2023/02/28 00:53:42;;;;;;;14.43;12.93;;;3.60;99.90;;;;;;4920687;29;20453;-72
2023/02/28 00:56:10;;;;;;;15.07;13.50;;;3.60;99.90;;;;;;4920897;29;20449;-72
2023/02/28 00:58:38;;;;;;;15.77;14.10;;;3.60;99.90;;;;;;4919307;29;20480;-72
2023/02/28 01:01:07;;;;;;;15.17;13.37;;;3.60;99.90;;;;;;4919246;29;20462;-72
2023/02/28 01:03:35;;;;;;;15.50;13.90;;;3.60;99.90;;;;;;4919185;29;20483;-72
2023/02/28 01:06:04;;;;;;;14.80;13.30;;;3.60;99.90;;;;;;4920433;29;20439;-72
2023/02/28 01:08:33;;;;;;;14.50;13.10;;;3.60;99.90;;;;;;4919226;29;20551;-72
2023/02/28 01:11:09;;;;;;;18.00;13.10;;;3.60;99.90;;;;;;4919168;29;20525;-72
2023/02/28 01:13:40;;;;;;;15.43;13.70;;;3.60;99.90;;;;;;4920594;29;20527;-72
2023/02/28 01:16:08;;;;;;;16.10;13.50;;;3.70;99.90;;;;;;4918981;29;20484;-72
2023/02/28 01:18:37;;;;;;;14.77;13.37;;;3.60;99.90;;;;;;4920095;29;20913;-72
2023/02/28 01:21:06;;;;;;;18.33;14.53;;;3.60;99.90;;;;;;4920135;29;20447;-72
2023/02/28 01:23:36;;;;;;;16.53;14.03;;;3.60;99.90;;;;;;4920054;29;20519;-72
2023/02/28 01:26:06;;;;;;;17.03;13.30;;;3.60;99.90;;;;;;4920057;29;20447;-72
2023/02/28 01:28:35;;;;;;;15.77;13.80;;;3.60;99.90;;;;;;4920357;29;20421;-72
2023/02/28 01:31:04;;;;;;;16.93;13.30;;;3.60;99.90;;;;;;4919980;29;20436;-72
2023/02/28 01:33:33;;;;;;;14.43;12.90;;;3.60;99.90;;;;;;4918634;29;20503;-72
2023/02/28 01:36:01;;;;;;;13.63;12.33;;;3.60;99.90;;;;;;4919920;29;20455;-72
2023/02/28 01:38:30;;;;;;;15.10;13.60;;;3.60;99.90;;;;;;4918568;29;20476;-72
2023/02/28 01:40:59;;;;;;;15.17;13.77;;;3.60;99.90;;;;;;4918577;29;20816;-72
2023/02/28 01:43:30;;;;;;;14.87;12.80;;;3.60;99.90;;;;;;4918426;29;20989;-72
2023/02/28 01:45:59;;;;;;;14.90;13.10;;;3.60;99.90;;;;;;4918772;29;20539;-72
2023/02/28 01:48:31;;;;;;;13.90;12.50;;;3.60;99.90;;;;;;4919719;29;20444;-72
2023/02/28 01:51:03;;;;;;;14.60;12.83;;;3.60;99.90;;;;;;4918512;29;20445;-72
2023/02/28 01:53:35;;;;;;;14.90;13.00;;;3.70;99.90;;;;;;4918413;29;20476;-72
2023/02/28 01:56:08;;;;;;;14.17;12.83;;;3.60;99.90;;;;;;4918410;29;20452;-73
2023/02/28 01:58:37;;;;;;;13.97;12.23;;;3.60;99.90;;;;;;4918355;29;20514;-73
2023/02/28 02:01:06;;;;;;;15.57;13.90;;;3.60;99.90;;;;;;4918290;29;20947;-72
2023/02/28 02:03:36;;;;;;;14.50;12.93;;;3.60;99.90;;;;;;4917420;29;20467;-73
2023/02/28 02:06:05;;;;;;;17.13;15.33;;;3.60;99.90;;;;;;4920508;29;20469;-72
2023/02/28 02:08:33;;;;;;;16.43;14.80;;;3.60;99.90;;;;;;4925150;29;20444;-72
2023/02/28 02:11:02;;;;;;;15.23;13.73;;;3.60;99.90;;;;;;4925390;29;20551;-72
2023/02/28 02:13:49;;;;;;;17.60;15.80;;;3.60;99.90;;;;;;4923835;29;20467;-72
2023/02/28 02:16:36;;;;;;;17.10;15.40;;;3.60;99.90;;;;;;4925487;29;20427;-72
2023/02/28 02:19:17;;;;;;;17.90;16.10;;;3.60;99.90;;;;;;4923021;29;20476;-72
2023/02/28 02:22:14;;;;;;;17.27;15.43;;;3.60;99.90;;;;;;4924935;29;20493;-72
2023/02/28 02:25:15;;;;;;;17.57;15.77;;;3.60;99.90;;;;;;4923681;29;20466;-72
2023/02/28 02:28:13;;;;;;;18.37;15.90;;;3.60;99.90;;;;;;4922740;29;20459;-73
2023/02/28 02:30:59;;;;;;;17.17;14.60;;;3.60;99.90;;;;;;4922185;29;20459;-73
2023/02/28 02:33:43;;;;;;;17.37;15.57;;;3.60;99.90;;;;;;4925472;29;20456;-73
2023/02/28 02:36:17;;;;;;;15.37;13.87;;;3.60;99.90;;;;;;4925043;29;20479;-72
2023/02/28 02:38:50;;;;;;;15.67;14.07;;;3.60;99.90;;;;;;4918720;29;20491;-72
2023/02/28 02:41:24;;;;;;;16.87;14.07;;;3.60;99.90;;;;;;4917785;29;20824;-72
2023/02/28 02:43:57;;;;;;;15.43;13.77;;;3.60;99.90;;;;;;4917503;29;20487;-72
2023/02/28 02:46:31;;;;;;;18.47;15.17;;;3.60;99.90;;;;;;4917481;29;20455;-72
2023/02/28 02:49:02;;;;;;;18.13;15.57;;;3.60;99.90;;;;;;4917409;29;20455;-72
2023/02/28 02:51:33;;;;;;;16.43;14.63;;;3.60;99.90;;;;;;4919036;29;20430;-73
2023/02/28 02:54:08;;;;;;;16.23;14.67;;;3.50;99.90;;;;;;4917297;29;20463;-73
2023/02/28 02:56:40;;;;;;;14.83;13.23;;;3.50;99.90;;;;;;4917296;29;20816;-73
2023/02/28 02:59:12;;;;;;;16.37;14.60;;;3.50;99.90;;;;;;4918708;29;20874;-73
2023/02/28 03:01:42;;;;;;;14.27;12.60;;;3.50;99.90;;;;;;4918549;29;20460;-73
2023/02/28 03:04:17;;;;;;;15.30;12.13;;;3.50;99.90;;;;;;4917181;29;20916;-73
2023/02/28 03:06:46;;;;;;;14.30;12.90;;;3.50;99.90;;;;;;4918864;29;20917;-72
2023/02/28 03:09:14;;;;;;;15.03;13.37;;;3.50;99.90;;;;;;4917003;29;20480;-72
2023/02/28 03:11:43;;;;;;;14.87;12.50;;;3.50;99.90;;;;;;4918180;29;20460;-72
2023/02/28 03:14:29;;;;;;;14.80;11.33;;;3.50;99.90;;;;;;4916976;29;20448;-72
2023/02/28 03:17:12;;;;;;;12.30;11.10;;;3.50;99.90;;;;;;4915983;29;20891;-72
2023/02/28 03:19:56;;;;;;;12.03;10.07;;;3.50;99.90;;;;;;4916949;29;20468;-72
2023/02/28 03:22:41;;;;;;;15.43;11.10;;;3.50;99.90;;;;;;4918522;29;20471;-72
2023/02/28 03:25:14;;;;;;;12.80;10.23;;;3.40;99.90;;;;;;4916793;29;20462;-72
2023/02/28 03:27:49;;;;;;;11.57;9.93;;;3.50;99.90;;;;;;4916710;29;20476;-71
2023/02/28 03:30:24;;;;;;;10.90;9.80;;;3.40;99.90;;;;;;4917873;29;20428;-72
2023/02/28 03:32:57;;;;;;;11.50;10.20;;;3.40;99.90;;;;;;4916604;29;20475;-72
2023/02/28 03:35:31;;;;;;;11.07;9.97;;;3.40;99.90;;;;;;4918060;29;20431;-72
2023/02/28 03:38:07;;;;;;;11.03;9.93;;;3.40;99.90;;;;;;4916477;29;20444;-72
2023/02/28 03:40:39;;;;;;;11.37;9.80;;;3.40;99.90;;;;;;4918270;29;20429;-72
2023/02/28 03:43:13;;;;;;;11.40;10.23;;;3.40;99.90;;;;;;4916368;29;20483;-72
2023/02/28 03:45:44;;;;;;;10.83;9.73;;;3.40;99.90;;;;;;4917803;29;20901;-72
2023/02/28 03:48:17;;;;;;;11.20;9.90;;;3.40;99.90;;;;;;4917656;29;20847;-72
2023/02/28 03:50:48;;;;;;;11.97;9.67;;;3.40;99.90;;;;;;4918088;29;20887;-72
2023/02/28 03:53:22;;;;;;;11.93;10.23;;;3.40;99.90;;;;;;4917925;29;20466;-72
2023/02/28 03:55:55;;;;;;;10.80;9.80;;;3.30;99.90;;;;;;4917457;29;20790;-72
2023/02/28 03:58:29;;;;;;;11.87;9.13;;;3.30;99.90;;;;;;4917720;29;20433;-72
2023/02/28 04:01:07;;;;;;;12.13;10.70;;;3.30;99.90;;;;;;4917423;29;20424;-72
2023/02/28 04:03:36;;;;;;;13.50;11.43;;;3.30;99.90;;;;;;4917352;29;20468;-72
2023/02/28 04:06:07;;;;;;;12.20;10.93;;;3.30;99.90;;;;;;4917407;29;20438;-72
2023/02/28 04:08:36;;;;;;;12.73;10.27;;;3.30;99.90;;;;;;4917636;29;20894;-72
2023/02/28 04:11:09;;;;;;;13.83;11.00;;;3.30;99.90;;;;;;4917324;29;20446;-72
2023/02/28 04:13:37;;;;;;;10.23;9.20;;;3.30;99.90;;;;;;4917546;29;20446;-72
2023/02/28 04:16:11;;;;;;;12.23;10.30;;;3.20;99.90;;;;;;4915970;29;20819;-72
2023/02/28 04:18:48;;;;;;;11.90;9.80;;;3.20;99.90;;;;;;4915876;29;20836;-72
2023/02/28 04:21:20;;;;;;;10.63;9.53;;;3.20;99.90;;;;;;4917068;29;20506;-72
2023/02/28 04:23:49;;;;;;;12.47;10.87;;;3.20;99.90;;;;;;4915917;29;20933;-72
2023/02/28 04:26:18;;;;;;;11.37;9.40;;;3.20;99.90;;;;;;4916976;29;20437;-72
2023/02/28 04:28:46;;;;;;;10.17;8.50;;;3.20;99.90;;;;;;4917096;29;20495;-72
2023/02/28 04:31:14;;;;;;;9.53;8.63;;;3.20;99.90;;;;;;4915694;29;20455;-72
2023/02/28 04:33:42;;;;;;;10.20;9.10;;;3.20;99.90;;;;;;4917568;29;20456;-72
2023/02/28 04:36:10;;;;;;;8.83;7.93;;;3.20;99.90;;;;;;4916918;29;20446;-72
2023/02/28 04:38:39;;;;;;;9.10;8.20;;;3.20;99.90;;;;;;4915604;29;20453;-72
2023/02/28 04:41:09;;;;;;;10.13;9.03;;;3.20;99.90;;;;;;4917026;29;20445;-72
2023/02/28 04:43:37;;;;;;;9.60;8.50;;;3.10;99.90;;;;;;4917506;29;20813;-72
2023/02/28 04:46:07;;;;;;;12.03;8.83;;;3.10;99.90;;;;;;4915755;29;20447;-72
2023/02/28 04:48:37;;;;;;;10.53;8.77;;;3.10;99.90;;;;;;4916945;29;20949;-72
2023/02/28 04:51:07;;;;;;;11.13;9.00;;;3.10;99.90;;;;;;4916886;29;20440;-72
2023/02/28 04:53:36;;;;;;;9.10;8.20;;;3.10;99.90;;;;;;4917422;29;20464;-72
2023/02/28 04:56:05;;;;;;;9.23;8.33;;;3.10;99.90;;;;;;4915674;29;20441;-72
2023/02/28 04:58:35;;;;;;;9.20;8.27;;;3.10;99.90;;;;;;4915553;29;20463;-72
2023/02/28 05:01:12;;;;;;;8.40;7.60;;;3.10;99.90;;;;;;4917304;29;20478;-72
2023/02/28 05:03:41;;;;;;;9.40;8.50;;;3.10;99.90;;;;;;4915548;29;20462;-72
2023/02/28 05:06:09;;;;;;;9.40;8.50;;;3.10;99.90;;;;;;4916758;29;20452;-72
2023/02/28 05:08:37;;;;;;;10.43;8.67;;;3.10;99.90;;;;;;4916797;29;20448;-72
2023/02/28 05:11:08;;;;;;;9.07;8.17;;;3.10;99.90;;;;;;4915839;29;20447;-72
2023/02/28 05:13:37;;;;;;;9.00;7.43;;;3.00;99.90;;;;;;4915504;29;20555;-72
2023/02/28 05:16:06;;;;;;;9.73;7.43;;;3.00;99.90;;;;;;4916662;29;20452;-72
2023/02/28 05:18:34;;;;;;;11.60;8.00;;;3.00;99.90;;;;;;4915331;29;20454;-72
2023/02/28 05:21:03;;;;;;;10.60;9.27;;;3.00;99.90;;;;;;4915333;29;20500;-72
2023/02/28 05:23:32;;;;;;;8.90;8.00;;;3.00;99.90;;;;;;4916528;29;20488;-72
2023/02/28 05:26:00;;;;;;;11.73;8.83;;;3.00;99.90;;;;;;4915369;29;20478;-72
2023/02/28 05:28:28;;;;;;;9.00;8.07;;;3.00;99.90;;;;;;4916885;29;20446;-72
2023/02/28 05:30:58;;;;;;;9.87;7.90;;;3.00;99.90;;;;;;4915323;29;20456;-72
2023/02/28 05:33:26;;;;;;;12.23;7.90;;;3.00;99.90;;;;;;4915175;29;21008;-72
2023/02/28 05:35:54;;;;;;;8.90;7.80;;;3.00;99.90;;;;;;4916542;29;20446;-72
2023/02/28 05:38:22;;;;;;;8.20;7.40;;;3.00;99.90;;;;;;4916876;29;20455;-72
2023/02/28 05:40:50;;;;;;;9.43;8.30;;;2.90;99.90;;;;;;4919795;29;20472;-72
2023/02/28 05:43:18;;;;;;;9.20;8.30;;;2.90;99.90;;;;;;4919669;29;20470;-72
2023/02/28 05:45:46;;;;;;;10.77;9.67;;;2.90;99.90;;;;;;4918539;29;20451;-72
2023/02/28 05:48:16;;;;;;;9.70;8.13;;;2.90;99.90;;;;;;4919638;29;20852;-72
2023/02/28 05:50:45;;;;;;;9.07;8.17;;;2.90;99.90;;;;;;4919631;29;20444;-72
2023/02/28 05:53:14;;;;;;;10.20;8.37;;;2.80;99.90;;;;;;4919976;29;20460;-72
2023/02/28 05:55:42;;;;;;;8.90;8.00;;;2.80;99.90;;;;;;4919672;29;20442;-72
2023/02/28 05:58:10;;;;;;;8.90;8.00;;;2.80;99.90;;;;;;4919656;29;20478;-72
2023/02/28 06:00:38;;;;;;;9.10;8.00;;;2.70;99.90;;;;;;4919809;29;20475;-72
2023/02/28 06:03:09;;;;;;;9.60;7.53;;;2.70;99.90;;;;;;4918210;29;20470;-72
2023/02/28 06:05:38;;;;;;;8.20;7.03;;;2.70;99.90;;;;;;4919461;29;20459;-72
2023/02/28 06:08:07;;;;;;;12.40;9.07;;;2.60;99.90;;;;;;4919661;29;20442;-72
2023/02/28 06:10:35;;;;;;;9.03;7.53;;;2.60;99.90;;;;;;4919297;29;20455;-72
2023/02/28 06:13:04;;;;;;;10.37;8.43;;;2.60;99.90;;;;;;4917970;29;20468;-72
2023/02/28 06:15:33;;;;;;;8.90;8.00;;;2.50;99.90;;;;;;4918054;29;20458;-72
2023/02/28 06:18:01;;;;;;;9.00;8.10;;;2.50;99.90;;;;;;4918011;29;20811;-72
2023/02/28 06:20:29;;;;;;;8.90;8.00;;;2.50;99.90;;;;;;4917967;29;20834;-72
2023/02/28 06:22:59;;;;;;;11.03;8.00;;;2.50;99.90;;;;;;4919130;29;20553;-72
2023/02/28 06:25:28;;;;;;;9.80;8.10;;;2.50;99.90;;;;;;4918971;29;20798;-72
2023/02/28 06:27:56;;;;;;;9.00;8.10;;;2.40;99.90;;;;;;4917845;29;20498;-72
2023/02/28 06:30:26;;;;;;;14.93;13.40;;;2.40;99.90;;;;;;4919175;29;20444;-72
2023/02/28 06:32:55;;;;;;;12.63;10.67;;;2.40;99.90;;;;;;4918985;29;20495;-72
2023/02/28 06:35:23;;;;;;;13.87;11.67;;;2.30;99.90;;;;;;4918911;29;20840;-72
2023/02/28 06:37:51;;;;;;;12.50;11.13;;;2.30;99.90;;;;;;4918895;29;20459;-72
2023/02/28 06:40:21;;;;;;;12.23;9.73;;;2.30;99.90;;;;;;4918734;29;20870;-72
2023/02/28 06:42:49;;;;;;;16.27;13.67;;;2.30;99.90;;;;;;4918680;29;20796;-72
2023/02/28 06:45:17;;;;;;;14.03;12.47;;;2.30;99.90;;;;;;4917471;29;20954;-72
2023/02/28 06:47:45;;;;;;;14.47;12.80;;;2.20;99.90;;;;;;4917475;29;20445;-72
2023/02/28 06:50:14;;;;;;;11.97;10.77;;;2.30;99.90;;;;;;4918350;29;20439;-72
2023/02/28 06:52:42;;;;;;;9.97;9.00;;;2.20;99.90;;;;;;4918737;29;20462;-72
2023/02/28 06:55:10;;;;;;;9.40;8.20;;;2.20;99.90;;;;;;4918772;29;20444;-72
2023/02/28 06:57:40;;;;;;;10.83;9.23;;;2.20;99.90;;;;;;4918481;29;20443;-72
2023/02/28 07:00:10;;;;;;;10.53;9.40;;;2.20;99.90;;;;;;4918427;29;20478;-72
2023/02/28 07:02:38;;;;;;;11.60;10.40;;;2.20;99.90;;;;;;4917037;29;20483;-72
2023/02/28 07:05:07;;;;;;;10.97;9.37;;;2.10;99.90;;;;;;4918630;29;20928;-72
2023/02/28 07:07:37;;;;;;;9.30;8.30;;;2.20;99.90;;;;;;4918286;29;20963;-72
2023/02/28 07:10:06;;;;;;;9.20;8.30;;;2.10;99.90;;;;;;4917099;29;20940;-72
2023/02/28 07:12:34;;;;;;;10.03;8.50;;;2.10;99.90;;;;;;4918153;29;20461;-72
2023/02/28 07:15:04;;;;;;;17.53;13.50;;;2.10;99.90;;;;;;4918108;29;20446;-72
2023/02/28 07:17:33;;;;;;;13.50;10.90;;;2.10;99.90;;;;;;4916829;29;20835;-72
2023/02/28 07:20:01;;;;;;;13.23;11.13;;;2.10;99.90;;;;;;4916766;29;20999;-72
2023/02/28 07:22:29;;;;;;;9.83;8.80;;;2.10;99.90;;;;;;4916777;29;20494;-72
2023/02/28 07:24:57;;;;;;;9.90;8.47;;;2.10;99.90;;;;;;4917937;29;20448;-72
2023/02/28 07:27:25;;;;;;;9.30;8.40;;;2.20;99.90;;;;;;4916684;29;20452;-72
2023/02/28 07:29:54;;;;;;;9.10;8.20;;;2.20;99.90;;;;;;4917909;29;20850;-72
2023/02/28 07:32:24;;;;;;;8.63;7.50;;;2.20;99.90;;;;;;4918061;29;20995;-72
2023/02/28 07:34:52;;;;;;;8.47;7.67;;;2.20;99.90;;;;;;4916592;29;20462;-72
2023/02/28 07:37:20;;;;;;;8.37;7.43;;;2.30;99.90;;;;;;4917813;29;20537;-72
2023/02/28 07:39:48;;;;;;;8.57;7.33;;;2.20;99.90;;;;;;4917732;29;20508;-72
2023/02/28 07:42:16;;;;;;;8.13;7.00;;;2.30;99.90;;;;;;4916326;29;20499;-72
2023/02/28 07:44:44;;;;;;;7.90;7.10;;;2.40;99.90;;;;;;4917669;29;20530;-72
2023/02/28 07:47:12;;;;;;;7.90;7.10;;;2.50;99.90;;;;;;4917870;29;20944;-72
2023/02/28 07:49:42;;;;;;;8.17;7.37;;;2.50;99.90;;;;;;4917575;29;20960;-72
2023/02/28 07:52:10;;;;;;;8.87;7.40;;;2.50;99.90;;;;;;4916267;29;20476;-72
2023/02/28 07:54:39;;;;;;;9.33;7.40;;;2.60;99.90;;;;;;4917518;29;20447;-72
2023/02/28 07:57:07;;;;;;;12.93;9.67;;;2.60;99.90;;;;;;4917633;29;20445;-73
2023/02/28 07:59:35;;;;;;;9.80;7.20;;;2.70;99.90;;;;;;4916159;29;20464;-73
2023/02/28 08:02:03;;;;;;;9.07;7.30;;;2.80;99.90;;;;;;4916674;29;20480;-73
2023/02/28 08:04:32;;;;;;;7.27;6.50;;;2.90;99.90;;;;;;4917323;29;20483;-72
2023/02/28 08:07:02;;;;;;;10.93;7.97;;;2.90;99.90;;;;;;4916138;29;20489;-72
2023/02/28 08:09:30;;;;;;;8.40;6.90;;;3.00;99.90;;;;;;4917286;29;20981;-72
2023/02/28 08:11:58;;;;;;;7.50;6.30;;;3.10;99.90;;;;;;4916279;29;20471;-73
2023/02/28 08:14:26;;;;;;;8.47;7.57;;;3.10;99.90;;;;;;4917498;29;20843;-73
2023/02/28 08:16:55;;;;;;;8.03;6.70;;;3.30;99.90;;;;;;4915886;29;20456;-73
2023/02/28 08:19:23;;;;;;;6.90;5.53;;;3.40;99.90;;;;;;4917416;29;20438;-72
2023/02/28 08:21:51;;;;;;;6.57;5.97;;;3.50;99.90;;;;;;4917135;29;20483;-73
2023/02/28 08:24:20;;;;;;;8.17;5.60;;;3.60;99.90;;;;;;4915963;29;20459;-72
2023/02/28 08:26:48;;;;;;;8.00;4.80;;;3.70;99.90;;;;;;4917226;29;20463;-72
2023/02/28 08:29:16;;;;;;;8.70;5.63;;;3.80;99.90;;;;;;4915841;29;20455;-72
2023/02/28 08:31:44;;;;;;;5.67;5.07;;;4.00;99.90;;;;;;4915777;29;20533;-72
2023/02/28 08:34:15;;;;;;;7.77;5.10;;;4.10;99.90;;;;;;4915840;29;20523;-72
2023/02/28 08:36:44;;;;;;;6.50;5.37;;;4.20;99.90;;;;;;4917480;29;20898;-72
2023/02/28 08:39:13;;;;;;;8.10;5.00;;;4.30;99.90;;;;;;4917004;29;20436;-72
2023/02/28 08:41:43;;;;;;;6.13;4.33;;;4.40;99.90;;;;;;4916859;29;20488;-72
2023/02/28 08:44:12;;;;;;;6.70;4.70;;;4.50;99.90;;;;;;4917302;29;20427;-72
2023/02/28 08:46:40;;;;;;;6.90;3.90;;;4.60;99.90;;;;;;4916996;29;20457;-73
2023/02/28 08:49:09;;;;;;;6.17;4.43;;;4.60;99.90;;;;;;4915747;29;20452;-72
2023/02/28 08:51:37;;;;;;;6.33;4.30;;;4.70;99.90;;;;;;4916830;29;20468;-72
2023/02/28 08:54:05;;;;;;;6.30;4.53;;;4.70;99.90;;;;;;4916845;29;20443;-72
2023/02/28 08:56:33;;;;;;;5.37;4.03;;;4.70;99.90;;;;;;4916911;29;20452;-72
2023/02/28 08:59:03;;;;;;;6.10;4.63;;;4.80;99.90;;;;;;4915588;29;20483;-72
2023/02/28 09:01:32;;;;;;;6.03;4.20;;;4.80;99.90;;;;;;4916948;29;20484;-72
2023/02/28 09:04:02;;;;;;;5.60;4.20;;;4.80;99.90;;;;;;4916849;29;20436;-72
2023/02/28 09:06:30;;;;;;;4.40;3.37;;;4.80;99.90;;;;;;4916865;29;20444;-72
2023/02/28 09:09:00;;;;;;;4.00;2.50;;;4.80;99.90;;;;;;4916994;29;20441;-72
2023/02/28 09:11:29;;;;;;;5.40;3.30;;;4.80;99.90;;;;;;4915419;29;20898;-72
2023/02/28 09:14:00;;;;;;;4.87;2.80;;;4.90;99.90;;;;;;4917994;29;20456;-72
2023/02/28 09:16:30;;;;;;;4.77;2.80;;;4.90;99.90;;;;;;4919120;29;20451;-72
2023/02/28 09:18:58;;;;;;;3.73;2.10;;;4.90;99.90;;;;;;4920302;29;20432;-72
2023/02/28 09:21:27;;;;;;;5.10;3.03;;;4.90;99.90;;;;;;4918848;29;21052;-72
2023/02/28 09:23:56;;;;;;;5.53;2.93;;;4.90;99.90;;;;;;4920468;29;20496;-72
2023/02/28 09:26:26;;;;;;;5.70;3.00;;;5.00;99.90;;;;;;4920662;29;20926;-73
2023/02/28 09:29:06;;;;;;;5.00;2.50;;;5.00;99.90;;;;;;4920236;29;20437;-72
2023/02/28 09:31:35;;;;;;;4.30;2.40;;;5.00;99.90;;;;;;4920229;29;20475;-73
2023/02/28 09:34:05;;;;;;;3.57;2.27;;;5.00;99.90;;;;;;4918741;29;20456;-73
2023/02/28 09:36:34;;;;;;;4.63;2.17;;;5.00;99.90;;;;;;4918721;29;20857;-73
2023/02/28 09:39:15;;;;;;;4.47;2.00;;;5.00;99.90;;;;;;4920286;29;20440;-72
2023/02/28 09:41:49;;;;;;;3.50;1.53;;;5.10;99.90;;;;;;4920317;29;20531;-73
2023/02/28 09:44:23;;;;;;;3.93;1.97;;;5.10;99.90;;;;;;4920444;29;20452;-72
2023/02/28 09:46:59;;;;;;;4.60;2.13;;;5.10;99.90;;;;;;4919840;29;20794;-72
2023/02/28 09:49:36;;;;;;;5.40;2.20;;;5.10;99.90;;;;;;4918577;29;20531;-73
2023/02/28 09:52:08;;;;;;;4.37;2.07;;;5.20;99.90;;;;;;4919960;29;20467;-72
2023/02/28 09:54:38;;;;;;;4.03;1.97;;;5.20;99.90;;;;;;4919767;29;20437;-73
2023/02/28 09:57:10;;;;;;;4.37;2.40;;;5.20;99.90;;;;;;4919897;29;20449;-72
2023/02/28 09:59:55;;;;;;;3.83;2.23;;;5.20;99.90;;;;;;4919871;29;20426;-73
2023/02/28 10:02:44;;;;;;;4.40;2.77;;;5.30;99.90;;;;;;4918135;29;20910;-72
2023/02/28 10:05:15;;;;;;;3.90;2.43;;;5.30;99.90;;;;;;4918270;29;20455;-72
2023/02/28 10:08:07;;;;;;;5.17;2.40;;;5.30;99.90;;;;;;4919760;29;20433;-73
2023/02/28 10:10:40;;;;;;;4.23;2.30;;;5.40;99.90;;;;;;4919419;29;20443;-73
2023/02/28 10:13:17;;;;;;;3.87;2.03;;;5.40;99.90;;;;;;4919584;29;20823;-73
2023/02/28 10:15:48;;;;;;;3.80;2.47;;;5.40;99.90;;;;;;4918156;29;20818;-72
2023/02/28 10:18:25;;;;;;;3.90;2.40;;;5.40;99.90;;;;;;4919221;29;20460;-73
2023/02/28 10:20:55;;;;;;;3.83;2.27;;;5.50;99.90;;;;;;4919252;29;20910;-73
2023/02/28 10:23:29;;;;;;;4.60;2.30;;;5.50;99.90;;;;;;4917798;29;20480;-72
2023/02/28 10:26:00;;;;;;;3.70;2.23;;;5.50;99.90;;;;;;4919069;29;20480;-72
2023/02/28 10:28:31;;;;;;;4.43;2.43;;;5.50;99.90;;;;;;4919358;29;20899;-72
2023/02/28 10:30:59;;;;;;;4.50;2.47;;;5.60;99.90;;;;;;4919643;29;20488;-72
2023/02/28 10:33:33;;;;;;;4.73;2.60;;;5.60;99.90;;;;;;4918934;29;20943;-72
2023/02/28 10:36:03;;;;;;;4.40;2.43;;;5.60;99.90;;;;;;4917783;29;20456;-72
2023/02/28 10:38:35;;;;;;;4.43;2.20;;;5.60;99.90;;;;;;4918892;29;20445;-72
2023/02/28 10:41:08;;;;;;;4.00;2.10;;;5.60;99.90;;;;;;4919120;29;20425;-72
2023/02/28 10:43:38;;;;;;;3.37;2.27;;;5.60;99.90;;;;;;4918662;29;20481;-72
2023/02/28 10:46:25;;;;;;;9.70;2.53;;;5.60;99.90;;;;;;4918709;29;20449;-72
2023/02/28 10:49:06;;;;;;;4.47;2.33;;;5.60;99.90;;;;;;4917427;29;20980;-72
2023/02/28 10:51:39;;;;;;;4.17;2.63;;;5.60;99.90;;;;;;4918840;29;20478;-72
2023/02/28 10:54:17;;;;;;;5.00;2.00;;;5.60;99.90;;;;;;4918829;29;20787;-72
2023/02/28 10:56:46;;;;;;;4.63;2.53;;;5.70;99.90;;;;;;4918610;29;20421;-72
2023/02/28 10:59:29;;;;;;;3.83;2.37;;;5.70;99.90;;;;;;4918548;29;20445;-72
2023/02/28 11:01:57;;;;;;;4.53;2.60;;;5.70;99.90;;;;;;4917093;29;20527;-72
2023/02/28 11:04:39;;;;;;;3.83;2.50;;;5.80;99.90;;;;;;4917435;29;20461;-72
2023/02/28 11:07:19;;;;;;;4.47;2.20;;;5.80;99.90;;;;;;4918434;29;20425;-72
2023/02/28 11:09:51;;;;;;;3.77;2.17;;;5.80;99.90;;;;;;4918504;29;20420;-72
2023/02/28 11:12:23;;;;;;;3.63;2.40;;;5.90;99.90;;;;;;4916943;29;20479;-72
2023/02/28 11:14:54;;;;;;;4.20;2.60;;;5.90;99.90;;;;;;4918205;29;20416;-72
2023/02/28 11:17:24;;;;;;;3.73;2.80;;;5.90;99.90;;;;;;4916934;29;20465;-72
2023/02/28 11:19:56;;;;;;;4.37;2.80;;;5.90;99.90;;;;;;4918158;29;20425;-72
2023/02/28 11:22:28;;;;;;;4.60;2.67;;;6.00;99.90;;;;;;4918504;29;20825;-72
2023/02/28 11:25:00;;;;;;;4.03;3.00;;;6.00;99.90;;;;;;4916791;29;20825;-72
2023/02/28 11:27:46;;;;;;;3.67;2.33;;;6.00;99.90;;;;;;4916783;29;20817;-72
2023/02/28 11:30:30;;;;;;;4.10;2.50;;;6.00;99.90;;;;;;4917937;29;20444;-72
2023/02/28 11:32:59;;;;;;;3.70;2.17;;;6.10;99.90;;;;;;4917876;29;20456;-72
2023/02/28 11:35:34;;;;;;;4.10;2.23;;;6.10;99.90;;;;;;4917685;29;20579;-72
2023/02/28 11:38:03;;;;;;;4.30;2.50;;;6.10;99.90;;;;;;4916039;29;20456;-72
2023/02/28 11:40:42;;;;;;;3.80;1.80;;;6.10;99.90;;;;;;4916532;29;20450;-72
2023/02/28 11:43:22;;;;;;;4.40;2.93;;;6.10;99.90;;;;;;4916404;29;20503;-72
2023/02/28 11:46:04;;;;;;;4.30;2.40;;;6.10;99.90;;;;;;4918020;29;20430;-72
2023/02/28 11:48:42;;;;;;;3.80;2.07;;;6.20;99.90;;;;;;4916439;29;20451;-72
2023/02/28 11:51:21;;;;;;;6.23;2.70;;;6.20;99.90;;;;;;4917637;29;20425;-72
2023/02/28 11:54:02;;;;;;;4.60;2.60;;;6.20;99.90;;;;;;4917879;29;20447;-72
2023/02/28 11:56:34;;;;;;;4.27;3.20;;;6.30;99.90;;;;;;4917612;29;20448;-72
2023/02/28 11:59:20;;;;;;;7.30;4.53;;;6.20;99.90;;;;;;4917796;29;20432;-72
2023/02/28 12:02:07;;;;;;;4.00;2.33;;;6.20;99.90;;;;;;4917687;29;20461;-72
2023/02/28 12:04:44;;;;;;;4.90;2.40;;;6.30;99.90;;;;;;4917453;29;20469;-72
2023/02/28 12:07:20;;;;;;;4.03;2.60;;;6.30;99.90;;;;;;4916206;29;20519;-72
2023/02/28 12:09:58;;;;;;;4.20;2.40;;;6.30;99.90;;;;;;4917788;29;20436;-72
2023/02/28 12:12:43;;;;;;;4.53;2.43;;;6.30;99.90;;;;;;4917513;29;20462;-72
2023/02/28 12:15:28;;;;;;;6.00;2.90;;;6.30;99.90;;;;;;4917593;29;20421;-72
2023/02/28 12:18:20;;;;;;;6.13;5.00;;;6.40;99.90;;;;;;4917296;29;20460;-72
2023/02/28 12:20:58;;;;;;;5.20;3.13;;;6.40;99.90;;;;;;4916006;29;20484;-72
2023/02/28 12:23:51;;;;;;;5.53;3.13;;;6.40;99.90;;;;;;4915872;29;20486;-72
2023/02/28 12:26:25;;;;;;;4.60;3.10;;;6.40;99.90;;;;;;4917403;29;20425;-72
2023/02/28 12:28:59;;;;;;;4.80;3.07;;;6.50;99.90;;;;;;4915935;29;20455;-72
2023/02/28 12:31:34;;;;;;;4.60;2.73;;;6.50;99.90;;;;;;4917601;29;20429;-72
2023/02/28 12:34:06;;;;;;;4.77;2.67;;;6.50;99.90;;;;;;4917667;29;20851;-72
2023/02/28 12:36:37;;;;;;;4.83;2.23;;;6.50;99.90;;;;;;4917296;29;20493;-72
2023/02/28 12:39:12;;;;;;;4.53;2.60;;;6.50;99.90;;;;;;4917085;29;20428;-72
2023/02/28 12:41:44;;;;;;;5.10;2.30;;;6.60;99.90;;;;;;4915792;29;20480;-72
2023/02/28 12:44:16;;;;;;;6.60;2.87;;;6.60;99.90;;;;;;4915841;29;20481;-72
2023/02/28 12:46:49;;;;;;;5.20;2.57;;;6.60;99.90;;;;;;4915798;29;20440;-72
2023/02/28 12:49:21;;;;;;;4.63;2.90;;;6.70;99.90;;;;;;4920771;29;20432;-72
2023/02/28 12:51:50;;;;;;;3.93;2.60;;;6.70;99.90;;;;;;4919617;29;20492;-72
2023/02/28 12:54:26;;;;;;;3.50;2.37;;;6.70;99.90;;;;;;4920683;29;20943;-72
2023/02/28 12:57:04;;;;;;;4.40;2.60;;;6.70;99.90;;;;;;4920798;29;20433;-72
2023/02/28 12:59:39;;;;;;;4.53;2.97;;;6.70;99.90;;;;;;4919436;29;20447;-72
2023/02/28 13:03:01;;;;;;;4.10;2.37;;;6.70;99.90;;;;;;4919314;29;20497;-72
2023/02/28 13:06:20;;;;;;;4.80;2.97;;;6.80;99.90;;;;;;4925167;29;20982;-72
2023/02/28 13:09:02;;;;;;;4.30;2.70;;;6.80;99.90;;;;;;4926840;29;20445;-72
2023/02/28 13:11:33;;;;;;;5.30;2.73;;;6.80;99.90;;;;;;4925011;29;20469;-73
2023/02/28 13:14:05;;;;;;;3.80;3.00;;;6.80;99.90;;;;;;4926772;29;20474;-72